Time,TemperatureF,DewpointF,PressureIn,WindDirection,WindDirectionDegrees,WindSpeedMPH,WindSpeedGustMPH,Humidity,HourlyPrecipIn,Conditions,Clouds,dailyrainin,SoftwareType,DateUTC
2013-03-10 00:00:00,40.6,33.6,30.26,SSW,198,0.0,1.0,76,0.00,,BKN250,0.00,VWS V14.01,2013-03-10 05:00:00,
2013-03-10 00:02:00,40.6,33.6,30.26,SSW,198,0.0,1.0,76,0.00,,BKN250,0.00,VWS V14.01,2013-03-10 05:02:00,
2013-03-10 00:03:00,40.6,34.0,30.26,SSW,197,0.0,1.0,77,0.00,,BKN250,0.00,VWS V14.01,2013-03-10 05:03:00,
2013-03-10 00:08:00,40.5,33.5,30.26,SSW,197,0.0,1.0,76,0.00,,BKN250,0.00,VWS V14.01,2013-03-10 05:08:00,
2013-03-10 00:10:00,40.4,33.5,30.26,SSW,198,0.0,1.0,76,0.00,,BKN250,0.00,VWS V14.01,2013-03-10 05:10:00,
2013-03-10 00:16:00,40.2,33.6,30.26,SSW,197,0.0,1.0,77,0.00,,BKN250,0.00,VWS V14.01,2013-03-10 05:16:00,
2013-03-10 00:21:00,40.1,33.8,30.26,SSW,198,0.0,1.0,78,0.00,,BKN250,0.00,VWS V14.01,2013-03-10 05:21:00,
2013-03-10 00:26:00,39.9,33.6,30.26,SSW,197,0.0,1.0,78,0.00,,BKN250,0.00,VWS V14.01,2013-03-10 05:26:00,
2013-03-10 00:32:00,39.9,33.9,30.25,SSW,197,0.0,1.0,79,0.00,,BKN250,0.00,VWS V14.01,2013-03-10 05:32:00,
2013-03-10 00:37:00,40.0,33.7,30.25,SSW,197,0.0,1.0,78,0.00,,BKN250,0.00,VWS V14.01,2013-03-10 05:37:00,
2013-03-10 00:42:00,40.0,34.0,30.25,SSW,197,0.0,1.0,79,0.00,,BKN250,0.00,VWS V14.01,2013-03-10 05:42:00,
2013-03-10 00:47:00,39.8,33.8,30.25,SSW,197,0.0,1.0,79,0.00,,BKN250,0.00,VWS V14.01,2013-03-10 05:47:00,
2013-03-10 00:52:00,39.8,34.1,30.25,SSW,197,0.0,1.0,80,0.00,,BKN250,0.00,VWS V14.01,2013-03-10 05:52:00,
2013-03-10 00:57:00,39.8,34.1,30.25,SSW,197,0.0,1.0,80,0.00,,BKN250,0.00,VWS V14.01,2013-03-10 05:57:00,
2013-03-10 01:02:00,39.9,34.2,30.25,SSW,198,0.0,1.0,80,0.00,,OVC130,0.00,VWS V14.01,2013-03-10 06:02:00,
2013-03-10 01:07:00,39.9,34.5,30.25,SSW,198,0.0,1.0,81,0.00,,OVC130,0.00,VWS V14.01,2013-03-10 06:07:00,
2013-03-10 01:12:00,40.0,34.7,30.25,SSW,197,0.0,1.0,81,0.00,,OVC130,0.00,VWS V14.01,2013-03-10 06:12:00,
2013-03-10 01:17:00,40.0,34.3,30.25,SSW,197,0.0,1.0,80,0.00,,OVC130,0.00,VWS V14.01,2013-03-10 06:17:00,
2013-03-10 01:22:00,39.9,34.2,30.25,SSW,197,0.0,1.0,80,0.00,,OVC130,0.00,VWS V14.01,2013-03-10 06:22:00,
2013-03-10 01:27:00,39.9,34.2,30.25,SSW,197,0.0,1.0,80,0.00,,OVC130,0.00,VWS V14.01,2013-03-10 06:27:00,
2013-03-10 01:32:00,39.9,34.5,30.25,SSW,197,0.0,1.0,81,0.00,,OVC130,0.00,VWS V14.01,2013-03-10 06:32:00,
2013-03-10 01:37:00,39.8,34.5,30.25,SSW,197,0.0,1.0,81,0.00,,OVC130,0.00,VWS V14.01,2013-03-10 06:37:00,
2013-03-10 01:42:00,39.8,34.5,30.24,SSW,197,0.0,1.0,81,0.00,,OVC130,0.00,VWS V14.01,2013-03-10 06:42:00,
2013-03-10 01:47:00,39.7,34.4,30.24,SSW,197,0.0,1.0,81,0.00,,OVC130,0.00,VWS V14.01,2013-03-10 06:47:00,
2013-03-10 01:52:00,39.5,34.5,30.24,SSW,197,0.0,1.0,82,0.00,,OVC130,0.00,VWS V14.01,2013-03-10 06:52:00,
2013-03-10 01:57:00,39.4,34.4,30.24,SSW,197,0.0,1.0,82,0.00,,OVC130,0.00,VWS V14.01,2013-03-10 06:57:00,
2013-03-10 03:02:00,39.3,34.6,30.23,ESE,119,0.0,1.0,83,0.00,,BKN130,0.00,VWS V14.01,2013-03-10 07:02:00,
2013-03-10 03:07:00,39.2,34.2,30.24,ESE,119,0.0,1.0,82,0.00,,BKN130,0.00,VWS V14.01,2013-03-10 07:07:00,
2013-03-10 03:12:00,39.1,34.4,30.23,ESE,119,0.0,1.0,83,0.00,,BKN130,0.00,VWS V14.01,2013-03-10 07:12:00,
2013-03-10 03:17:00,39.0,34.3,30.23,ESE,119,0.0,1.0,83,0.00,,BKN130,0.00,VWS V14.01,2013-03-10 07:17:00,
2013-03-10 03:22:00,38.9,34.2,30.23,ESE,119,0.0,1.0,83,0.00,,BKN130,0.00,VWS V14.01,2013-03-10 07:22:00,
2013-03-10 03:27:00,38.9,34.2,30.23,ESE,119,0.0,1.0,83,0.00,,BKN130,0.00,VWS V14.01,2013-03-10 07:27:00,
2013-03-10 03:32:00,38.8,34.4,30.23,ESE,119,0.0,1.0,84,0.00,,BKN130,0.00,VWS V14.01,2013-03-10 07:32:00,
2013-03-10 03:37:00,38.7,34.3,30.23,ESE,119,0.0,1.0,84,0.00,,BKN130,0.00,VWS V14.01,2013-03-10 07:37:00,
2013-03-10 03:42:00,38.6,34.2,30.23,ESE,119,0.0,1.0,84,0.00,,BKN130,0.00,VWS V14.01,2013-03-10 07:42:00,
2013-03-10 03:47:00,38.5,34.1,30.23,ESE,119,0.0,1.0,84,0.00,,BKN130,0.00,VWS V14.01,2013-03-10 07:47:00,
2013-03-10 03:53:00,38.4,34.0,30.23,ESE,119,0.0,1.0,84,0.00,,BKN130,0.00,VWS V14.01,2013-03-10 07:53:00,
2013-03-10 03:58:00,38.3,33.9,30.23,ESE,119,0.0,1.0,84,0.00,,BKN130,0.00,VWS V14.01,2013-03-10 07:58:00,
2013-03-10 04:03:00,38.2,34.1,30.23,ESE,119,0.0,1.0,85,0.00,,FEW130,0.00,VWS V14.01,2013-03-10 08:03:00,
2013-03-10 04:08:00,38.2,34.1,30.23,ESE,119,0.0,1.0,85,0.00,,FEW130,0.00,VWS V14.01,2013-03-10 08:08:00,
2013-03-10 04:13:00,38.1,34.0,30.23,ESE,119,0.0,1.0,85,0.00,,FEW130,0.00,VWS V14.01,2013-03-10 08:13:00,
2013-03-10 04:18:00,38.0,33.9,30.23,ESE,119,0.0,1.0,85,0.00,,FEW130,0.00,VWS V14.01,2013-03-10 08:18:00,
2013-03-10 04:23:00,37.9,33.8,30.23,ESE,119,0.0,1.0,85,0.00,,FEW130,0.00,VWS V14.01,2013-03-10 08:23:00,
2013-03-10 04:28:00,37.7,33.6,30.23,ESE,119,0.0,1.0,85,0.00,,FEW130,0.00,VWS V14.01,2013-03-10 08:28:00,
2013-03-10 04:33:00,37.7,33.9,30.23,ESE,119,0.0,1.0,86,0.00,,FEW130,0.00,VWS V14.01,2013-03-10 08:33:00,
2013-03-10 04:38:00,37.6,33.8,30.23,ESE,119,0.0,1.0,86,0.00,,FEW130,0.00,VWS V14.01,2013-03-10 08:38:00,
2013-03-10 04:43:00,37.4,33.6,30.23,ESE,119,0.0,1.0,86,0.00,,FEW130,0.00,VWS V14.01,2013-03-10 08:43:00,
2013-03-10 04:48:00,37.2,33.4,30.23,ESE,119,0.0,1.0,86,0.00,,FEW130,0.00,VWS V14.01,2013-03-10 08:48:00,
2013-03-10 04:53:00,37.0,33.2,30.23,ESE,119,0.0,1.0,86,0.00,,FEW130,0.00,VWS V14.01,2013-03-10 08:53:00,
2013-03-10 04:58:00,36.9,33.4,30.23,ESE,119,0.0,1.0,87,0.00,,FEW130,0.00,VWS V14.01,2013-03-10 08:58:00,
2013-03-10 05:03:00,36.8,33.3,30.23,ESE,119,0.0,1.0,87,0.00,,CLR,0.00,VWS V14.01,2013-03-10 09:03:00,
2013-03-10 05:08:00,36.7,33.2,30.23,ESE,119,0.0,1.0,87,0.00,,CLR,0.00,VWS V14.01,2013-03-10 09:08:00,
2013-03-10 05:13:00,36.6,33.1,30.23,ESE,119,0.0,1.0,87,0.00,,CLR,0.00,VWS V14.01,2013-03-10 09:13:00,
2013-03-10 05:18:00,36.6,33.1,30.23,ESE,119,0.0,1.0,87,0.00,,CLR,0.00,VWS V14.01,2013-03-10 09:18:00,
2013-03-10 05:23:00,36.5,33.0,30.23,ESE,119,0.0,1.0,87,0.00,,CLR,0.00,VWS V14.01,2013-03-10 09:23:00,
2013-03-10 05:28:00,36.3,32.8,30.23,ESE,119,0.0,1.0,87,0.00,,CLR,0.00,VWS V14.01,2013-03-10 09:28:00,
2013-03-10 05:33:00,36.2,32.7,30.24,ESE,119,0.0,1.0,87,0.00,,CLR,0.00,VWS V14.01,2013-03-10 09:33:00,
2013-03-10 05:38:00,36.1,32.9,30.24,ESE,119,0.0,1.0,88,0.00,,CLR,0.00,VWS V14.01,2013-03-10 09:38:00,
2013-03-10 05:43:00,36.1,32.9,30.23,ESE,119,0.0,1.0,88,0.00,,CLR,0.00,VWS V14.01,2013-03-10 09:43:00,
2013-03-10 05:48:00,36.1,32.9,30.23,ESE,119,0.0,1.0,88,0.00,,CLR,0.00,VWS V14.01,2013-03-10 09:48:00,
2013-03-10 05:53:00,36.0,32.8,30.23,ESE,119,0.0,1.0,88,0.00,,CLR,0.00,VWS V14.01,2013-03-10 09:53:00,
2013-03-10 05:58:00,36.0,32.8,30.23,ESE,119,0.0,1.0,88,0.00,,CLR,0.00,VWS V14.01,2013-03-10 09:58:00,
2013-03-10 06:03:00,36.0,32.8,30.23,ESE,119,0.0,1.0,88,0.00,,FEW130,0.00,VWS V14.01,2013-03-10 10:03:00,
2013-03-10 06:08:00,35.9,32.7,30.23,ESE,119,0.0,1.0,88,0.00,,FEW130,0.00,VWS V14.01,2013-03-10 10:08:00,
2013-03-10 06:13:00,35.8,32.6,30.23,ESE,119,0.0,1.0,88,0.00,,FEW130,0.00,VWS V14.01,2013-03-10 10:13:00,
2013-03-10 06:18:00,35.7,32.8,30.23,ESE,119,0.0,1.0,89,0.00,,FEW130,0.00,VWS V14.01,2013-03-10 10:18:00,
2013-03-10 06:23:00,35.6,32.7,30.23,ESE,119,0.0,1.0,89,0.00,,FEW130,0.00,VWS V14.01,2013-03-10 10:23:00,
2013-03-10 06:28:00,35.5,32.6,30.24,ESE,119,0.0,1.0,89,0.00,,FEW130,0.00,VWS V14.01,2013-03-10 10:28:00,
2013-03-10 06:33:00,35.3,32.4,30.24,ESE,119,0.0,1.0,89,0.00,,FEW130,0.00,VWS V14.01,2013-03-10 10:33:00,
2013-03-10 06:38:00,35.3,32.4,30.23,ESE,119,0.0,1.0,89,0.00,,FEW130,0.00,VWS V14.01,2013-03-10 10:38:00,
2013-03-10 06:43:00,35.2,32.3,30.24,ESE,119,0.0,1.0,89,0.00,,FEW130,0.00,VWS V14.01,2013-03-10 10:43:00,
2013-03-10 06:48:00,35.2,32.3,30.24,ESE,119,0.0,1.0,89,0.00,,FEW130,0.00,VWS V14.01,2013-03-10 10:48:00,
2013-03-10 06:53:00,35.1,32.5,30.24,ESE,119,0.0,1.0,90,0.00,,FEW130,0.00,VWS V14.01,2013-03-10 10:53:00,
2013-03-10 06:58:00,35.0,32.4,30.24,ESE,119,0.0,1.0,90,0.00,,FEW130,0.00,VWS V14.01,2013-03-10 10:58:00,
2013-03-10 07:03:00,34.9,32.3,30.24,ESE,119,0.0,1.0,90,0.00,,FEW250,0.00,VWS V14.01,2013-03-10 11:03:00,
2013-03-10 07:08:00,34.7,32.1,30.24,ESE,119,0.0,1.0,90,0.00,,FEW250,0.00,VWS V14.01,2013-03-10 11:08:00,
2013-03-10 07:13:00,34.6,32.0,30.24,ESE,119,0.0,1.0,90,0.00,,FEW250,0.00,VWS V14.01,2013-03-10 11:13:00,
2013-03-10 07:18:00,34.6,32.0,30.24,ESE,119,0.0,1.0,90,0.00,,FEW250,0.00,VWS V14.01,2013-03-10 11:18:00,
2013-03-10 07:23:00,34.5,31.9,30.24,ESE,119,0.0,1.0,90,0.00,,FEW250,0.00,VWS V14.01,2013-03-10 11:23:00,
2013-03-10 07:28:00,34.5,31.9,30.24,ESE,119,0.0,1.0,90,0.00,,FEW250,0.00,VWS V14.01,2013-03-10 11:28:00,
2013-03-10 07:33:00,34.4,31.8,30.24,ESE,119,0.0,1.0,90,0.00,,FEW250,0.00,VWS V14.01,2013-03-10 11:33:00,
2013-03-10 07:38:00,34.3,32.0,30.24,ESE,119,0.0,1.0,91,0.00,,FEW250,0.00,VWS V14.01,2013-03-10 11:38:00,
2013-03-10 07:43:00,34.3,31.7,30.24,ESE,119,0.0,1.0,90,0.00,,FEW250,0.00,VWS V14.01,2013-03-10 11:43:00,
2013-03-10 07:48:00,34.3,32.0,30.25,ESE,119,0.0,1.0,91,0.00,,FEW250,0.00,VWS V14.01,2013-03-10 11:48:00,
2013-03-10 07:53:00,34.3,32.0,30.25,ESE,119,0.0,1.0,91,0.00,,FEW250,0.00,VWS V14.01,2013-03-10 11:53:00,
2013-03-10 07:58:00,34.4,32.0,30.25,ESE,119,0.0,1.0,91,0.00,,FEW250,0.00,VWS V14.01,2013-03-10 11:58:00,
2013-03-10 08:03:00,34.5,32.2,30.25,ESE,119,0.0,1.0,91,0.00,,BKN250,0.00,VWS V14.01,2013-03-10 12:03:00,
2013-03-10 08:08:00,34.5,32.2,30.25,ESE,119,0.0,1.0,91,0.00,,BKN250,0.00,VWS V14.01,2013-03-10 12:08:00,
2013-03-10 08:13:00,34.6,32.2,30.26,ESE,119,0.0,1.0,91,0.00,,BKN250,0.00,VWS V14.01,2013-03-10 12:13:00,
2013-03-10 08:18:00,34.7,32.6,30.26,ESE,119,0.0,1.0,92,0.00,,BKN250,0.00,VWS V14.01,2013-03-10 12:18:00,
2013-03-10 08:23:00,34.9,32.8,30.26,ESE,119,0.0,1.0,92,0.00,,BKN250,0.00,VWS V14.01,2013-03-10 12:23:00,
2013-03-10 08:28:00,35.2,33.1,30.26,ESE,119,0.0,1.0,92,0.00,,BKN250,0.00,VWS V14.01,2013-03-10 12:28:00,
2013-03-10 08:33:00,35.5,33.7,30.26,ESE,119,0.0,1.0,93,0.00,,BKN250,0.00,VWS V14.01,2013-03-10 12:33:00,
2013-03-10 08:38:00,35.8,34.0,30.26,ESE,119,0.0,1.0,93,0.00,,BKN250,0.00,VWS V14.01,2013-03-10 12:38:00,
2013-03-10 08:43:00,36.3,34.5,30.25,ESE,119,0.0,1.0,93,0.00,,BKN250,0.00,VWS V14.01,2013-03-10 12:43:00,
2013-03-10 08:48:00,36.8,34.7,30.26,ESE,119,0.0,1.0,92,0.00,,BKN250,0.00,VWS V14.01,2013-03-10 12:48:00,
2013-03-10 08:53:00,37.4,35.6,30.26,ESE,119,0.0,1.0,93,0.00,,BKN250,0.00,VWS V14.01,2013-03-10 12:53:00,
2013-03-10 08:58:00,38.0,35.6,30.26,ESE,119,0.0,1.0,91,0.00,,BKN250,0.00,VWS V14.01,2013-03-10 12:58:00,
2013-03-10 09:03:00,38.6,35.6,30.26,ESE,119,0.0,1.0,89,0.00,,BKN250,0.00,VWS V14.01,2013-03-10 13:03:00,
2013-03-10 09:08:00,38.9,35.9,30.26,ESE,119,0.0,1.0,89,0.00,,BKN250,0.00,VWS V14.01,2013-03-10 13:08:00,
2013-03-10 09:13:00,39.6,36.3,30.26,ESE,119,0.0,1.0,88,0.00,,BKN250,0.00,VWS V14.01,2013-03-10 13:13:00,
2013-03-10 09:18:00,40.5,36.9,30.27,ESE,119,0.0,1.0,87,0.00,,BKN250,0.00,VWS V14.01,2013-03-10 13:18:00,
2013-03-10 09:23:00,41.2,37.3,30.27,ESE,119,0.0,1.0,86,0.00,,BKN250,0.00,VWS V14.01,2013-03-10 13:23:00,
2013-03-10 09:28:00,41.7,37.8,30.27,ESE,119,0.0,1.0,86,0.00,,BKN250,0.00,VWS V14.01,2013-03-10 13:28:00,
2013-03-10 09:33:00,42.3,37.2,30.27,ESE,119,0.0,1.0,82,0.00,,BKN250,0.00,VWS V14.01,2013-03-10 13:33:00,
2013-03-10 09:38:00,43.2,37.8,30.28,ESE,119,0.0,1.0,81,0.00,,BKN250,0.00,VWS V14.01,2013-03-10 13:38:00,
2013-03-10 09:43:00,43.8,37.4,30.28,ESE,119,0.0,1.0,78,0.00,,BKN250,0.00,VWS V14.01,2013-03-10 13:43:00,
2013-03-10 09:48:00,44.4,37.7,30.28,ESE,119,0.0,1.0,77,0.00,,BKN250,0.00,VWS V14.01,2013-03-10 13:48:00,
2013-03-10 09:53:00,45.0,37.6,30.28,ESE,119,0.0,1.0,75,0.00,,BKN250,0.00,VWS V14.01,2013-03-10 13:53:00,
2013-03-10 09:58:00,45.5,37.7,30.28,ESE,119,0.0,1.0,74,0.00,,BKN250,0.00,VWS V14.01,2013-03-10 13:58:00,
2013-03-10 10:03:00,45.9,37.8,30.28,ESE,119,0.0,1.0,73,0.00,,OVC250,0.00,VWS V14.01,2013-03-10 14:03:00,
2013-03-10 10:08:00,46.4,37.9,30.28,ESE,119,0.0,1.0,72,0.00,,OVC250,0.00,VWS V14.01,2013-03-10 14:08:00,
2013-03-10 10:13:00,46.9,38.7,30.28,ESE,119,0.0,1.0,73,0.00,,OVC250,0.00,VWS V14.01,2013-03-10 14:13:00,
2013-03-10 10:18:00,47.7,39.1,30.28,ESE,119,0.0,1.0,72,0.00,,OVC250,0.00,VWS V14.01,2013-03-10 14:18:00,
2013-03-10 10:23:00,48.3,39.0,30.28,ESE,119,0.0,1.0,70,0.00,,OVC250,0.00,VWS V14.01,2013-03-10 14:23:00,
2013-03-10 10:28:00,49.0,39.3,30.27,ESE,119,0.0,1.0,69,0.00,,OVC250,0.00,VWS V14.01,2013-03-10 14:28:00,
2013-03-10 10:33:00,49.6,39.1,30.27,ESE,119,0.0,1.0,67,0.00,,OVC250,0.00,VWS V14.01,2013-03-10 14:33:00,
2013-03-10 10:38:00,50.1,39.6,30.27,ESE,119,0.0,1.0,67,0.00,,OVC250,0.00,VWS V14.01,2013-03-10 14:38:00,
2013-03-10 10:43:00,50.9,39.2,30.27,ESE,119,1.0,1.0,64,0.00,,OVC250,0.00,VWS V14.01,2013-03-10 14:43:00,
2013-03-10 10:48:00,51.9,39.3,30.27,ESE,119,0.0,1.0,62,0.00,,OVC250,0.00,VWS V14.01,2013-03-10 14:48:00,
2013-03-10 10:53:00,52.8,38.9,30.27,SE,133,0.0,1.0,59,0.00,,OVC250,0.00,VWS V14.01,2013-03-10 14:53:00,
2013-03-10 10:58:00,53.3,37.6,30.27,SE,135,0.0,1.0,55,0.00,,OVC250,0.00,VWS V14.01,2013-03-10 14:58:00,
2013-03-10 11:03:00,53.8,38.5,30.28,SE,135,0.0,1.0,56,0.00,,BKN250,0.00,VWS V14.01,2013-03-10 15:03:00,
2013-03-10 11:08:00,54.5,37.2,30.28,South,188,1.0,1.0,52,0.00,,BKN250,0.00,VWS V14.01,2013-03-10 15:08:00,
2013-03-10 11:13:00,55.6,36.2,30.28,SSW,195,1.0,1.0,48,0.00,,BKN250,0.00,VWS V14.01,2013-03-10 15:13:00,
2013-03-10 11:18:00,56.3,36.3,30.28,ENE,67,1.0,1.0,47,0.00,,BKN250,0.00,VWS V14.01,2013-03-10 15:18:00,
2013-03-10 11:23:00,57.1,36.5,30.28,WSW,238,1.0,1.0,46,0.00,,BKN250,0.00,VWS V14.01,2013-03-10 15:23:00,
2013-03-10 11:29:00,57.7,36.5,30.27,South,186,3.0,3.0,45,0.00,,BKN250,0.00,VWS V14.01,2013-03-10 15:29:00,
2013-03-10 11:34:00,58.0,36.8,30.28,SSW,196,4.0,4.0,45,0.00,,BKN250,0.00,VWS V14.01,2013-03-10 15:34:00,
2013-03-10 11:39:00,58.6,37.3,30.27,ENE,58,2.0,2.0,45,0.00,,BKN250,0.00,VWS V14.01,2013-03-10 15:39:00,
2013-03-10 11:44:00,59.0,36.6,30.27,South,175,4.0,4.0,43,0.00,,BKN250,0.00,VWS V14.01,2013-03-10 15:44:00,
2013-03-10 11:49:00,59.3,36.2,30.27,SE,124,2.0,2.0,42,0.00,,BKN250,0.00,VWS V14.01,2013-03-10 15:49:00,
2013-03-10 11:54:00,59.5,36.4,30.27,South,191,5.0,5.0,42,0.00,,BKN250,0.00,VWS V14.01,2013-03-10 15:54:00,
2013-03-10 11:59:00,59.9,36.2,30.27,SW,217,1.0,1.0,41,0.00,,BKN250,0.00,VWS V14.01,2013-03-10 15:59:00,
2013-03-10 12:04:00,60.1,35.1,30.27,South,179,2.0,2.0,39,0.00,,BKN250,0.00,VWS V14.01,2013-03-10 16:04:00,
2013-03-10 12:09:00,60.1,36.3,30.27,ENE,65,1.0,1.0,41,0.00,,BKN250,0.00,VWS V14.01,2013-03-10 16:09:00,
2013-03-10 12:14:00,60.5,36.1,30.27,WSW,237,2.0,2.0,40,0.00,,BKN250,0.00,VWS V14.01,2013-03-10 16:14:00,
2013-03-10 12:19:00,61.1,36.0,30.27,SSW,209,0.0,1.0,39,0.00,,BKN250,0.00,VWS V14.01,2013-03-10 16:19:00,
2013-03-10 12:24:00,61.6,35.8,30.26,SSW,202,2.0,2.0,38,0.00,,BKN250,0.00,VWS V14.01,2013-03-10 16:24:00,
2013-03-10 12:29:00,62.0,35.5,30.26,SSW,209,0.0,1.0,37,0.00,,BKN250,0.00,VWS V14.01,2013-03-10 16:29:00,
2013-03-10 12:34:00,61.8,34.6,30.26,SSE,163,4.0,4.0,36,0.00,,BKN250,0.00,VWS V14.01,2013-03-10 16:34:00,
2013-03-10 12:39:00,61.4,35.6,30.25,ENE,63,2.0,2.0,38,0.00,,BKN250,0.00,VWS V14.01,2013-03-10 16:39:00,
2013-03-10 12:44:00,61.5,36.3,30.25,South,189,4.0,4.0,39,0.00,,BKN250,0.00,VWS V14.01,2013-03-10 16:44:00,
2013-03-10 12:49:00,62.2,37.0,30.25,SSW,200,1.0,1.0,39,0.00,,BKN250,0.00,VWS V14.01,2013-03-10 16:49:00,
2013-03-10 12:54:00,62.5,36.6,30.25,SE,130,1.0,1.0,38,0.00,,BKN250,0.00,VWS V14.01,2013-03-10 16:54:00,
2013-03-10 12:59:00,62.6,36.7,30.25,WSW,258,1.0,1.0,38,0.00,,BKN250,0.00,VWS V14.01,2013-03-10 16:59:00,
2013-03-10 13:04:00,62.7,36.8,30.24,East,98,0.0,1.0,38,0.00,,OVC250,0.00,VWS V14.01,2013-03-10 17:04:00,
2013-03-10 13:09:00,62.7,36.8,30.24,SW,217,2.0,2.0,38,0.00,,OVC250,0.00,VWS V14.01,2013-03-10 17:09:00,
2013-03-10 13:14:00,63.2,37.2,30.23,WNW,290,1.0,1.0,38,0.00,,OVC250,0.00,VWS V14.01,2013-03-10 17:14:00,
2013-03-10 13:19:00,63.7,38.3,30.23,South,169,0.0,1.0,39,0.00,,OVC250,0.00,VWS V14.01,2013-03-10 17:19:00,
2013-03-10 13:24:00,63.8,37.7,30.23,SW,233,2.0,2.0,38,0.00,,OVC250,0.00,VWS V14.01,2013-03-10 17:24:00,
2013-03-10 13:29:00,63.6,36.9,30.23,South,191,2.0,2.0,37,0.00,,OVC250,0.00,VWS V14.01,2013-03-10 17:29:00,
2013-03-10 13:34:00,63.4,36.7,30.22,South,188,3.0,3.0,37,0.00,,OVC250,0.00,VWS V14.01,2013-03-10 17:34:00,
2013-03-10 13:39:00,63.5,36.8,30.22,SSW,211,1.0,1.0,37,0.00,,OVC250,0.00,VWS V14.01,2013-03-10 17:39:00,
2013-03-10 13:44:00,63.8,36.4,30.22,SW,236,1.0,1.0,36,0.00,,OVC250,0.00,VWS V14.01,2013-03-10 17:44:00,
2013-03-10 13:49:00,64.2,36.7,30.22,South,189,4.0,4.0,36,0.00,,OVC250,0.00,VWS V14.01,2013-03-10 17:49:00,
2013-03-10 13:54:00,64.0,35.1,30.22,SW,218,0.0,1.0,34,0.00,,OVC250,0.00,VWS V14.01,2013-03-10 17:54:00,
2013-03-10 13:59:00,63.7,35.6,30.21,NNE,13,0.0,1.0,35,0.00,,OVC250,0.00,VWS V14.01,2013-03-10 17:59:00,
2013-03-10 14:04:00,63.7,35.6,30.21,South,173,0.0,1.0,35,0.00,,BKN250,0.00,VWS V14.01,2013-03-10 18:04:00,
2013-03-10 14:09:00,63.7,35.6,30.21,ESE,103,3.0,3.0,35,0.00,,BKN250,0.00,VWS V14.01,2013-03-10 18:09:00,
2013-03-10 14:14:00,63.6,36.2,30.21,SSE,168,0.0,1.0,36,0.00,,BKN250,0.00,VWS V14.01,2013-03-10 18:14:00,
2013-03-10 14:19:00,63.5,36.1,30.21,East,93,0.0,1.0,36,0.00,,BKN250,0.00,VWS V14.01,2013-03-10 18:19:00,
2013-03-10 14:24:00,63.9,37.1,30.20,East,93,0.0,1.0,37,0.00,,BKN250,0.00,VWS V14.01,2013-03-10 18:24:00,
2013-03-10 14:29:00,64.6,35.6,30.19,South,191,2.0,2.0,34,0.00,,BKN250,0.00,VWS V14.01,2013-03-10 18:29:00,
2013-03-10 14:34:00,65.3,35.5,30.19,South,177,3.0,3.0,33,0.00,,BKN250,0.00,VWS V14.01,2013-03-10 18:34:00,
2013-03-10 14:39:00,64.9,35.9,30.19,NE,40,1.0,1.0,34,0.00,,BKN250,0.00,VWS V14.01,2013-03-10 18:39:00,
2013-03-10 14:44:00,64.8,35.8,30.19,South,176,2.0,2.0,34,0.00,,BKN250,0.00,VWS V14.01,2013-03-10 18:44:00,
2013-03-10 14:49:00,64.9,35.9,30.19,South,179,2.0,2.0,34,0.00,,BKN250,0.00,VWS V14.01,2013-03-10 18:49:00,
2013-03-10 14:54:00,64.9,36.6,30.19,East,100,0.0,1.0,35,0.00,,BKN250,0.00,VWS V14.01,2013-03-10 18:54:00,
2013-03-10 14:59:00,64.9,35.1,30.19,SSE,165,2.0,2.0,33,0.00,,BKN250,0.00,VWS V14.01,2013-03-10 18:59:00,
2013-03-10 15:04:00,64.9,35.1,30.18,SW,215,2.0,2.0,33,0.00,,BKN250,0.00,VWS V14.01,2013-03-10 19:04:00,
2013-03-10 15:09:00,65.1,35.3,30.18,North,5,2.0,2.0,33,0.00,,BKN250,0.00,VWS V14.01,2013-03-10 19:09:00,
2013-03-10 15:14:00,65.4,35.6,30.18,WSW,238,1.0,1.0,33,0.00,,BKN250,0.00,VWS V14.01,2013-03-10 19:14:00,
2013-03-10 15:19:00,66.0,36.1,30.18,NNE,20,1.0,1.0,33,0.00,,BKN250,0.00,VWS V14.01,2013-03-10 19:19:00,
2013-03-10 15:24:00,66.2,36.3,30.18,South,173,0.0,1.0,33,0.00,,BKN250,0.00,VWS V14.01,2013-03-10 19:24:00,
2013-03-10 15:29:00,66.2,35.5,30.18,South,188,1.0,1.0,32,0.00,,BKN250,0.00,VWS V14.01,2013-03-10 19:29:00,
2013-03-10 15:34:00,66.4,36.5,30.18,SSW,203,1.0,1.0,33,0.00,,BKN250,0.00,VWS V14.01,2013-03-10 19:34:00,
2013-03-10 15:39:00,66.6,36.6,30.18,SSE,158,2.0,2.0,33,0.00,,BKN250,0.00,VWS V14.01,2013-03-10 19:39:00,
2013-03-10 15:44:00,66.5,37.3,30.18,North,11,1.0,1.0,34,0.00,,BKN250,0.00,VWS V14.01,2013-03-10 19:44:00,
2013-03-10 15:49:00,66.4,36.5,30.18,South,190,3.0,3.0,33,0.00,,BKN250,0.00,VWS V14.01,2013-03-10 19:49:00,
2013-03-10 15:54:00,66.2,36.3,30.17,South,190,5.0,5.0,33,0.00,,BKN250,0.00,VWS V14.01,2013-03-10 19:54:00,
2013-03-10 15:59:00,66.4,37.2,30.18,SSW,194,3.0,3.0,34,0.00,,BKN250,0.00,VWS V14.01,2013-03-10 19:59:00,
2013-03-10 16:04:00,66.5,37.3,30.17,ENE,58,0.0,1.0,34,0.00,,BKN250,0.00,VWS V14.01,2013-03-10 20:04:00,
2013-03-10 16:09:00,66.5,36.5,30.17,ENE,69,1.0,1.0,33,0.00,,BKN250,0.00,VWS V14.01,2013-03-10 20:09:00,
2013-03-10 16:14:00,66.1,36.2,30.17,SE,137,1.0,1.0,33,0.00,,BKN250,0.00,VWS V14.01,2013-03-10 20:14:00,
2013-03-10 16:19:00,65.8,35.2,30.17,SE,133,0.0,1.0,32,0.00,,BKN250,0.00,VWS V14.01,2013-03-10 20:19:00,
2013-03-10 16:24:00,65.6,36.5,30.17,SSE,163,2.0,2.0,34,0.00,,BKN250,0.00,VWS V14.01,2013-03-10 20:24:00,
2013-03-10 16:29:00,65.7,36.6,30.17,SW,230,1.0,1.0,34,0.00,,BKN250,0.00,VWS V14.01,2013-03-10 20:29:00,
2013-03-10 16:34:00,66.1,36.2,30.16,SW,230,0.0,1.0,33,0.00,,BKN250,0.00,VWS V14.01,2013-03-10 20:34:00,
2013-03-10 16:39:00,66.5,37.3,30.16,South,177,5.0,5.0,34,0.00,,BKN250,0.00,VWS V14.01,2013-03-10 20:39:00,
2013-03-10 16:44:00,66.4,35.7,30.17,SSE,163,6.0,6.0,32,0.00,,BKN250,0.00,VWS V14.01,2013-03-10 20:44:00,
2013-03-10 16:49:00,66.2,36.3,30.16,ENE,76,0.0,1.0,33,0.00,,BKN250,0.00,VWS V14.01,2013-03-10 20:49:00,
2013-03-10 16:54:00,66.4,37.2,30.16,South,170,0.0,1.0,34,0.00,,BKN250,0.00,VWS V14.01,2013-03-10 20:54:00,
2013-03-10 16:59:00,66.7,36.7,30.16,SE,144,2.0,2.0,33,0.00,,BKN250,0.00,VWS V14.01,2013-03-10 20:59:00,
2013-03-10 17:04:00,66.8,36.8,30.16,NE,50,0.0,1.0,33,0.00,,BKN250,0.00,VWS V14.01,2013-03-10 21:04:00,
2013-03-10 17:09:00,67.0,36.2,30.17,SSW,192,1.0,1.0,32,0.00,,BKN250,0.00,VWS V14.01,2013-03-10 21:09:00,
2013-03-10 17:14:00,66.9,35.3,30.16,SSW,203,1.0,1.0,31,0.00,,BKN250,0.00,VWS V14.01,2013-03-10 21:14:00,
2013-03-10 17:19:00,66.5,35.0,30.16,SSW,196,3.0,3.0,31,0.00,,BKN250,0.00,VWS V14.01,2013-03-10 21:19:00,
2013-03-10 17:24:00,66.3,35.6,30.16,South,185,3.0,3.0,32,0.00,,BKN250,0.00,VWS V14.01,2013-03-10 21:24:00,
2013-03-10 17:29:00,66.4,34.9,30.16,ESE,109,1.0,1.0,31,0.00,,BKN250,0.00,VWS V14.01,2013-03-10 21:29:00,
2013-03-10 17:34:00,66.3,35.6,30.15,ESE,123,0.0,1.0,32,0.00,,BKN250,0.00,VWS V14.01,2013-03-10 21:34:00,
2013-03-10 17:39:00,66.5,35.8,30.15,ESE,121,0.0,1.0,32,0.00,,BKN250,0.00,VWS V14.01,2013-03-10 21:39:00,
2013-03-10 17:44:00,66.5,35.8,30.15,SSW,207,1.0,1.0,32,0.00,,BKN250,0.00,VWS V14.01,2013-03-10 21:44:00,
2013-03-10 17:49:00,66.4,35.7,30.15,SSW,196,2.0,2.0,32,0.00,,BKN250,0.00,VWS V14.01,2013-03-10 21:49:00,
2013-03-10 17:54:00,66.2,35.5,30.15,SSW,193,2.0,2.0,32,0.00,,BKN250,0.00,VWS V14.01,2013-03-10 21:54:00,
2013-03-10 18:00:00,66.0,34.5,30.15,South,187,1.0,1.0,31,0.00,,BKN250,0.00,VWS V14.01,2013-03-10 22:00:00,
2013-03-10 18:05:00,65.9,34.4,30.15,South,175,2.0,2.0,31,0.00,,BKN250,0.00,VWS V14.01,2013-03-10 22:05:00,
2013-03-10 18:10:00,65.9,34.4,30.15,SSE,156,4.0,4.0,31,0.00,,BKN250,0.00,VWS V14.01,2013-03-10 22:10:00,
2013-03-10 18:15:00,65.8,35.2,30.15,SSE,168,0.0,1.0,32,0.00,,BKN250,0.00,VWS V14.01,2013-03-10 22:15:00,
2013-03-10 18:20:00,65.6,34.2,30.15,ENE,57,0.0,1.0,31,0.00,,BKN250,0.00,VWS V14.01,2013-03-10 22:20:00,
2013-03-10 18:25:00,65.4,35.6,30.15,SSE,165,0.0,1.0,33,0.00,,BKN250,0.00,VWS V14.01,2013-03-10 22:25:00,
2013-03-10 18:30:00,65.1,34.5,30.15,SSE,159,1.0,1.0,32,0.00,,BKN250,0.00,VWS V14.01,2013-03-10 22:30:00,
2013-03-10 18:35:00,64.9,34.4,30.15,South,173,0.0,1.0,32,0.00,,BKN250,0.00,VWS V14.01,2013-03-10 22:35:00,
2013-03-10 18:40:00,64.8,35.0,30.15,SSE,163,1.0,1.0,33,0.00,,BKN250,0.00,VWS V14.01,2013-03-10 22:40:00,
2013-03-10 18:45:00,64.7,34.2,30.15,SSE,165,2.0,2.0,32,0.00,,BKN250,0.00,VWS V14.01,2013-03-10 22:45:00,
2013-03-10 18:50:00,64.6,34.1,30.15,South,174,1.0,1.0,32,0.00,,BKN250,0.00,VWS V14.01,2013-03-10 22:50:00,
2013-03-10 18:55:00,64.5,34.0,30.15,SSE,161,1.0,1.0,32,0.00,,BKN250,0.00,VWS V14.01,2013-03-10 22:55:00,
2013-03-10 19:00:00,64.4,34.7,30.15,SSE,153,0.0,1.0,33,0.00,,BKN250,0.00,VWS V14.01,2013-03-10 23:00:00,
2013-03-10 19:05:00,64.2,33.8,30.15,SSE,167,2.0,2.0,32,0.00,,BKN220,0.00,VWS V14.01,2013-03-10 23:05:00,
2013-03-10 19:10:00,64.1,34.4,30.16,South,178,0.0,1.0,33,0.00,,BKN220,0.00,VWS V14.01,2013-03-10 23:10:00,
2013-03-10 19:15:00,63.8,34.2,30.15,South,178,2.0,2.0,33,0.00,,BKN220,0.00,VWS V14.01,2013-03-10 23:15:00,
2013-03-10 19:20:00,63.5,34.7,30.16,SSE,157,1.0,1.0,34,0.00,,BKN220,0.00,VWS V14.01,2013-03-10 23:20:00,
2013-03-10 19:25:00,63.3,34.5,30.16,SSE,157,0.0,1.0,34,0.00,,BKN220,0.00,VWS V14.01,2013-03-10 23:25:00,
2013-03-10 19:30:00,63.0,34.2,30.16,SSE,157,0.0,1.0,34,0.00,,BKN220,0.00,VWS V14.01,2013-03-10 23:30:00,
2013-03-10 19:35:00,62.7,34.0,30.16,SSE,157,1.0,1.0,34,0.00,,BKN220,0.00,VWS V14.01,2013-03-10 23:35:00,
2013-03-10 19:40:00,62.4,34.4,30.16,SSE,157,0.0,1.0,35,0.00,,BKN220,0.00,VWS V14.01,2013-03-10 23:40:00,
2013-03-10 19:45:00,62.1,34.8,30.16,SSE,157,0.0,1.0,36,0.00,,BKN220,0.00,VWS V14.01,2013-03-10 23:45:00,
2013-03-10 19:50:00,61.7,35.2,30.17,SSE,157,0.0,1.0,37,0.00,,BKN220,0.00,VWS V14.01,2013-03-10 23:50:00,
2013-03-10 19:55:00,61.2,34.7,30.17,SSE,157,0.0,1.0,37,0.00,,BKN220,0.00,VWS V14.01,2013-03-10 23:55:00,
2013-03-10 20:00:00,60.8,35.1,30.17,SSE,157,0.0,1.0,38,0.00,,BKN220,0.00,VWS V14.01,2013-03-11 00:00:00,
2013-03-10 20:05:00,60.3,34.6,30.17,SSE,157,0.0,1.0,38,0.00,,OVC220,0.00,VWS V14.01,2013-03-11 00:05:00,
2013-03-10 20:10:00,59.9,35.5,30.17,SSE,157,0.0,1.0,40,0.00,,OVC220,0.00,VWS V14.01,2013-03-11 00:10:00,
2013-03-10 20:15:00,59.4,35.1,30.17,SSE,157,0.0,1.0,40,0.00,,OVC220,0.00,VWS V14.01,2013-03-11 00:15:00,
2013-03-10 20:20:00,59.0,35.3,30.17,SSE,157,0.0,1.0,41,0.00,,OVC220,0.00,VWS V14.01,2013-03-11 00:20:00,
2013-03-10 20:25:00,58.6,35.0,30.17,SSE,157,0.0,1.0,41,0.00,,OVC220,0.00,VWS V14.01,2013-03-11 00:25:00,
2013-03-10 20:30:00,58.3,35.3,30.18,SSE,157,0.0,1.0,42,0.00,,OVC220,0.00,VWS V14.01,2013-03-11 00:30:00,
2013-03-10 20:35:00,57.9,35.6,30.18,SSE,157,0.0,1.0,43,0.00,,OVC220,0.00,VWS V14.01,2013-03-11 00:35:00,
2013-03-10 20:40:00,57.6,35.9,30.17,SSE,157,0.0,1.0,44,0.00,,OVC220,0.00,VWS V14.01,2013-03-11 00:40:00,
2013-03-10 20:45:00,57.3,35.6,30.17,SSE,157,0.0,1.0,44,0.00,,OVC220,0.00,VWS V14.01,2013-03-11 00:45:00,
2013-03-10 20:50:00,56.9,35.8,30.18,SSE,157,0.0,1.0,45,0.00,,OVC220,0.00,VWS V14.01,2013-03-11 00:50:00,
2013-03-10 20:55:00,56.6,35.5,30.17,SSE,157,0.0,1.0,45,0.00,,OVC220,0.00,VWS V14.01,2013-03-11 00:55:00,
2013-03-10 21:00:00,56.4,35.9,30.18,SSE,157,0.0,1.0,46,0.00,,OVC220,0.00,VWS V14.01,2013-03-11 01:00:00,
2013-03-10 21:05:00,56.1,35.6,30.18,SSE,157,0.0,1.0,46,0.00,,BKN220,0.00,VWS V14.01,2013-03-11 01:05:00,
2013-03-10 21:10:00,56.0,35.5,30.17,SSE,157,0.0,1.0,46,0.00,,BKN220,0.00,VWS V14.01,2013-03-11 01:10:00,
2013-03-10 21:15:00,55.9,35.4,30.18,SSE,157,0.0,1.0,46,0.00,,BKN220,0.00,VWS V14.01,2013-03-11 01:15:00,
2013-03-10 21:20:00,55.8,36.4,30.18,SSE,157,0.0,1.0,48,0.00,,BKN220,0.00,VWS V14.01,2013-03-11 01:20:00,
2013-03-10 21:25:00,55.7,35.8,30.18,SSE,157,0.0,1.0,47,0.00,,BKN220,0.00,VWS V14.01,2013-03-11 01:25:00,
2013-03-10 21:30:00,55.4,36.1,30.18,SSE,157,0.0,1.0,48,0.00,,BKN220,0.00,VWS V14.01,2013-03-11 01:30:00,
2013-03-10 21:35:00,55.2,35.9,30.18,SSE,157,0.0,1.0,48,0.00,,BKN220,0.00,VWS V14.01,2013-03-11 01:35:00,
2013-03-10 21:40:00,55.0,36.2,30.18,SSE,157,0.0,1.0,49,0.00,,BKN220,0.00,VWS V14.01,2013-03-11 01:40:00,
2013-03-10 21:45:00,54.8,36.0,30.18,SSE,157,0.0,1.0,49,0.00,,BKN220,0.00,VWS V14.01,2013-03-11 01:45:00,
2013-03-10 21:50:00,54.5,37.2,30.19,SSE,157,0.0,1.0,52,0.00,,BKN220,0.00,VWS V14.01,2013-03-11 01:50:00,
2013-03-10 21:55:00,54.1,36.4,30.19,SSE,157,0.0,1.0,51,0.00,,BKN220,0.00,VWS V14.01,2013-03-11 01:55:00,
2013-03-10 22:00:00,54.0,36.8,30.19,SSE,157,0.0,1.0,52,0.00,,BKN220,0.00,VWS V14.01,2013-03-11 02:00:00,
2013-03-10 22:05:00,53.9,36.7,30.18,SSE,157,0.0,1.0,52,0.00,,BKN220,0.00,VWS V14.01,2013-03-11 02:05:00,
2013-03-10 22:10:00,53.7,37.0,30.19,SSE,157,0.0,1.0,53,0.00,,BKN220,0.00,VWS V14.01,2013-03-11 02:10:00,
2013-03-10 22:15:00,53.6,36.4,30.18,SSE,157,0.0,1.0,52,0.00,,BKN220,0.00,VWS V14.01,2013-03-11 02:15:00,
2013-03-10 22:20:00,53.6,36.9,30.18,SSE,157,0.0,1.0,53,0.00,,BKN220,0.00,VWS V14.01,2013-03-11 02:20:00,
2013-03-10 22:26:00,53.6,36.9,30.18,SSE,157,0.0,1.0,53,0.00,,BKN220,0.00,VWS V14.01,2013-03-11 02:26:00,
2013-03-10 22:31:00,53.7,36.5,30.19,SSE,157,1.0,1.0,52,0.00,,BKN220,0.00,VWS V14.01,2013-03-11 02:31:00,
2013-03-10 22:36:00,53.9,36.7,30.18,SSE,160,0.0,1.0,52,0.00,,BKN220,0.00,VWS V14.01,2013-03-11 02:36:00,
2013-03-10 22:41:00,54.0,37.3,30.18,SSE,157,0.0,1.0,53,0.00,,BKN220,0.00,VWS V14.01,2013-03-11 02:41:00,
2013-03-10 22:46:00,54.2,37.0,30.18,SSE,164,2.0,2.0,52,0.00,,BKN220,0.00,VWS V14.01,2013-03-11 02:46:00,
2013-03-10 22:51:00,54.5,37.2,30.18,SSE,162,1.0,1.0,52,0.00,,BKN220,0.00,VWS V14.01,2013-03-11 02:51:00,
2013-03-10 22:56:00,54.8,37.0,30.18,SSE,165,1.0,1.0,51,0.00,,BKN220,0.00,VWS V14.01,2013-03-11 02:56:00,
2013-03-10 23:01:00,55.0,36.7,30.18,South,171,0.0,1.0,50,0.00,,BKN220,0.00,VWS V14.01,2013-03-11 03:01:00,
2013-03-10 23:06:00,55.0,36.7,30.19,South,174,2.0,2.0,50,0.00,,BKN220,0.00,VWS V14.01,2013-03-11 03:06:00,
2013-03-10 23:11:00,55.0,36.7,30.19,South,169,0.0,1.0,50,0.00,,BKN220,0.00,VWS V14.01,2013-03-11 03:11:00,
2013-03-10 23:16:00,55.0,36.7,30.19,South,177,0.0,1.0,50,0.00,,BKN220,0.00,VWS V14.01,2013-03-11 03:16:00,
2013-03-10 23:21:00,54.8,36.5,30.19,SSE,159,0.0,1.0,50,0.00,,BKN220,0.00,VWS V14.01,2013-03-11 03:21:00,
2013-03-10 23:26:00,54.7,36.4,30.19,South,190,2.0,2.0,50,0.00,,BKN220,0.00,VWS V14.01,2013-03-11 03:26:00,
2013-03-10 23:31:00,54.6,35.8,30.18,South,182,1.0,1.0,49,0.00,,BKN220,0.00,VWS V14.01,2013-03-11 03:31:00,
2013-03-10 23:37:00,54.4,35.1,30.19,South,175,0.0,1.0,48,0.00,,BKN220,0.00,VWS V14.01,2013-03-11 03:37:00,
2013-03-10 23:42:00,54.2,35.0,30.19,NE,40,1.0,1.0,48,0.00,,BKN220,0.00,VWS V14.01,2013-03-11 03:42:00,
2013-03-10 23:47:00,54.0,34.2,30.18,South,178,4.0,4.0,47,0.00,,BKN220,0.00,VWS V14.01,2013-03-11 03:47:00,
2013-03-10 23:52:00,53.8,34.1,30.19,South,173,0.0,1.0,47,0.00,,BKN220,0.00,VWS V14.01,2013-03-11 03:52:00,
2013-03-10 23:58:00,53.7,32.3,30.19,South,171,2.0,2.0,44,0.00,,BKN220,0.00,VWS V14.01,2013-03-11 03:58:00,